Time;durP1;ratioP1;P1;durP2;ratioP2;P2;SDS_P1;SDS_P2;PMS_P1;PMS_P2;Temp;Humidity;BMP_temperature;BMP_pressure;BME280_temperature;BME280_humidity;BME280_pressure;Samples;Min_cycle;Max_cycle;Signal;HPM_P1;HPM_P2
2022/01/04 00:00:52;;;;;;;0.10;0.10;;;7.20;99.90;;;;;;4924524;29;20768;-69
2022/01/04 00:03:19;;;;;;;0.03;0.03;;;7.20;99.90;;;;;;4926923;29;20627;-69
2022/01/04 00:05:45;;;;;;;0.10;0.10;;;7.20;99.90;;;;;;4931741;28;20690;-69
2022/01/04 00:08:13;;;;;;;0.10;0.10;;;7.20;99.90;;;;;;4925736;29;20603;-67
2022/01/04 00:10:40;;;;;;;0.10;0.10;;;7.20;99.90;;;;;;4939104;28;20700;-68
2022/01/04 00:13:23;;;;;;;0.10;0.10;;;7.20;99.90;;;;;;4928369;29;20635;-68
2022/01/04 00:15:54;;;;;;;0.10;0.10;;;7.20;99.90;;;;;;4927270;29;20682;-68
2022/01/04 00:18:21;;;;;;;0.10;0.10;;;7.20;99.90;;;;;;4926111;29;20670;-68
2022/01/04 00:20:48;;;;;;;0.10;0.10;;;7.20;99.90;;;;;;4923792;29;20634;-68
2022/01/04 00:23:16;;;;;;;0.10;0.10;;;7.20;99.90;;;;;;4927923;29;20619;-68
2022/01/04 00:25:44;;;;;;;0.10;0.10;;;7.20;99.90;;;;;;4929123;29;20623;-68
2022/01/04 00:28:11;;;;;;;0.10;0.10;;;7.20;99.90;;;;;;4925552;29;20619;-67
2022/01/04 00:30:40;;;;;;;0.10;0.10;;;7.10;99.90;;;;;;4937180;28;20652;-68
2022/01/04 00:33:11;;;;;;;0.10;0.10;;;7.10;99.90;;;;;;4928595;29;20622;-67
2022/01/04 00:35:39;;;;;;;0.10;0.10;;;7.10;99.90;;;;;;4927793;29;20685;-68
2022/01/04 00:38:07;;;;;;;0.10;0.10;;;7.10;99.90;;;;;;4925750;29;20670;-68
2022/01/04 00:40:34;;;;;;;0.10;0.10;;;7.10;99.90;;;;;;4927380;29;20615;-67
2022/01/04 00:43:02;;;;;;;0.00;0.00;;;7.10;99.90;;;;;;4932578;29;20643;-68
2022/01/04 00:45:31;;;;;;;0.10;0.10;;;7.10;99.90;;;;;;4928333;29;20720;-68
2022/01/04 00:50:44;;;;;;;0.10;0.10;;;7.00;99.90;;;;;;4908050;29;20623;-68
2022/01/04 00:53:11;;;;;;;0.10;0.10;;;7.00;99.90;;;;;;4927559;29;20631;-68
2022/01/04 00:55:38;;;;;;;0.10;0.10;;;7.00;99.90;;;;;;4928220;29;20645;-68
2022/01/04 00:58:06;;;;;;;0.10;0.10;;;7.00;99.90;;;;;;4923595;29;20758;-68
2022/01/04 01:00:33;;;;;;;0.10;0.10;;;7.00;99.90;;;;;;4929042;29;20611;-68
2022/01/04 01:03:01;;;;;;;0.10;0.10;;;7.00;99.90;;;;;;4928981;29;20634;-68
2022/01/04 01:05:28;;;;;;;0.10;0.10;;;7.00;99.90;;;;;;4926342;29;21199;-67
2022/01/04 01:07:57;;;;;;;0.10;0.10;;;7.00;99.90;;;;;;4930235;29;20639;-68
2022/01/04 01:13:16;;;;;;;0.10;0.10;;;6.90;99.90;;;;;;4916788;29;20782;-68
2022/01/04 01:15:45;;;;;;;0.10;0.10;;;6.90;99.90;;;;;;4943483;28;20634;-68
2022/01/04 01:18:14;;;;;;;0.10;0.10;;;6.90;99.90;;;;;;4923757;29;21223;-68
2022/01/04 01:20:41;;;;;;;0.10;0.10;;;6.90;99.90;;;;;;4928533;29;20706;-68
2022/01/04 01:23:09;;;;;;;0.10;0.10;;;6.90;99.90;;;;;;4921576;29;20619;-68
2022/01/04 01:25:36;;;;;;;0.10;0.10;;;6.90;99.90;;;;;;4928443;29;20618;-68
2022/01/04 01:28:04;;;;;;;0.10;0.10;;;6.90;99.90;;;;;;4925204;29;20619;-68
2022/01/04 01:30:34;;;;;;;0.10;0.10;;;6.90;99.90;;;;;;4922739;29;21026;-68
2022/01/04 01:33:01;;;;;;;0.10;0.10;;;6.90;99.90;;;;;;4928011;29;20623;-68
2022/01/04 01:35:28;;;;;;;0.10;0.10;;;6.90;99.90;;;;;;4927766;29;20635;-68
2022/01/04 01:37:55;;;;;;;0.10;0.10;;;6.90;99.90;;;;;;4927159;29;20670;-68
2022/01/04 01:40:23;;;;;;;0.10;0.10;;;6.90;99.90;;;;;;4928315;29;20614;-67
2022/01/04 01:42:50;;;;;;;0.10;0.10;;;6.90;99.90;;;;;;4933210;29;20773;-67
2022/01/04 01:45:21;;;;;;;0.10;0.10;;;6.90;99.90;;;;;;4931549;29;20983;-68
2022/01/04 01:47:48;;;;;;;0.10;0.10;;;6.90;99.90;;;;;;4931939;28;20634;-68
2022/01/04 01:50:15;;;;;;;0.00;0.00;;;6.90;99.90;;;;;;4946583;28;20725;-68
2022/01/04 01:52:46;;;;;;;0.10;0.10;;;6.90;99.90;;;;;;4926927;29;20667;-68
2022/01/04 01:55:15;;;;;;;0.10;0.10;;;6.90;99.90;;;;;;4925134;29;20632;-68
2022/01/04 01:57:43;;;;;;;0.10;0.10;;;6.90;99.90;;;;;;4922670;29;20707;-68
2022/01/04 02:00:13;;;;;;;0.10;0.10;;;6.90;99.90;;;;;;4927166;29;20675;-68
2022/01/04 02:02:41;;;;;;;0.10;0.10;;;7.00;99.90;;;;;;4926584;29;20671;-68
2022/01/04 02:05:10;;;;;;;0.10;0.10;;;7.00;99.90;;;;;;4925743;29;20627;-68
2022/01/04 02:07:37;;;;;;;0.10;0.10;;;7.00;99.90;;;;;;4927541;29;20670;-68
2022/01/04 02:10:07;;;;;;;0.10;0.10;;;7.00;99.90;;;;;;4924552;29;20627;-68
2022/01/04 02:12:36;;;;;;;0.10;0.10;;;7.00;99.90;;;;;;4926720;29;20659;-68
2022/01/04 02:15:07;;;;;;;0.10;0.10;;;7.00;99.90;;;;;;4926705;29;20613;-68
2022/01/04 02:17:35;;;;;;;0.10;0.10;;;7.00;99.90;;;;;;4926846;29;20699;-68
2022/01/04 02:20:05;;;;;;;0.10;0.10;;;7.00;99.90;;;;;;4925071;29;20650;-68
2022/01/04 02:22:32;;;;;;;0.10;0.10;;;7.00;99.90;;;;;;4927060;29;20699;-68
2022/01/04 02:24:59;;;;;;;0.10;0.10;;;7.00;99.90;;;;;;4926392;29;20643;-68
2022/01/04 02:27:28;;;;;;;0.10;0.10;;;7.10;99.90;;;;;;4928236;29;20637;-68
2022/01/04 02:29:54;;;;;;;0.10;0.10;;;7.10;99.90;;;;;;4927919;29;20633;-68
2022/01/04 02:32:21;;;;;;;0.10;0.10;;;7.10;99.90;;;;;;4926428;29;20654;-68
2022/01/04 02:34:49;;;;;;;0.10;0.10;;;7.10;99.90;;;;;;4927559;29;20627;-68
2022/01/04 02:37:20;;;;;;;0.10;0.10;;;7.10;99.90;;;;;;4924592;29;20760;-68
2022/01/04 02:39:47;;;;;;;0.00;0.00;;;7.10;99.90;;;;;;4927858;29;20650;-68
2022/01/04 02:42:14;;;;;;;0.10;0.10;;;7.10;99.90;;;;;;4929942;29;20674;-68
2022/01/04 02:44:41;;;;;;;0.10;0.10;;;7.10;99.90;;;;;;4929918;29;20639;-68
2022/01/04 02:47:09;;;;;;;0.10;0.10;;;7.10;99.90;;;;;;4927989;29;20623;-68
2022/01/04 02:49:36;;;;;;;0.10;0.10;;;7.10;99.90;;;;;;4930080;29;20622;-68
2022/01/04 02:52:03;;;;;;;0.10;0.10;;;7.10;99.90;;;;;;4930365;29;20670;-68
2022/01/04 02:54:32;;;;;;;0.10;0.10;;;7.10;99.90;;;;;;4928876;29;20698;-68
2022/01/04 02:56:59;;;;;;;0.10;0.10;;;7.10;99.90;;;;;;4931246;29;20661;-68
2022/01/04 02:59:26;;;;;;;0.10;0.10;;;7.20;99.90;;;;;;4930730;29;20631;-68
2022/01/04 03:01:53;;;;;;;0.10;0.10;;;7.10;99.90;;;;;;4929487;29;20707;-68
2022/01/04 03:04:21;;;;;;;0.10;0.10;;;7.10;99.90;;;;;;4928907;29;20631;-68
2022/01/04 03:06:47;;;;;;;0.03;0.03;;;7.10;99.90;;;;;;4933256;28;20646;-68
2022/01/04 03:09:15;;;;;;;0.10;0.10;;;7.10;99.90;;;;;;4931456;28;20606;-69
2022/01/04 03:11:43;;;;;;;0.10;0.10;;;7.20;99.90;;;;;;4932110;28;20671;-68
2022/01/04 03:14:10;;;;;;;0.10;0.10;;;7.20;99.90;;;;;;4929642;29;20701;-68
2022/01/04 03:16:37;;;;;;;0.10;0.10;;;7.20;99.90;;;;;;4925535;29;20626;-68
2022/01/04 03:19:06;;;;;;;0.10;0.10;;;7.20;99.90;;;;;;4930789;29;20666;-68
2022/01/04 03:21:34;;;;;;;0.10;0.10;;;7.20;99.90;;;;;;4930865;29;20650;-68
2022/01/04 03:24:02;;;;;;;0.00;0.00;;;7.20;99.90;;;;;;4929357;29;20637;-68
2022/01/04 03:26:30;;;;;;;0.10;0.10;;;7.20;99.90;;;;;;4924625;29;20635;-69
2022/01/04 03:28:58;;;;;;;0.10;0.10;;;7.20;99.90;;;;;;4928641;29;20623;-68
2022/01/04 03:31:26;;;;;;;0.10;0.10;;;7.20;99.90;;;;;;4932142;29;20706;-68
2022/01/04 03:33:53;;;;;;;0.10;0.10;;;7.20;99.90;;;;;;4930481;29;20650;-68
2022/01/04 03:36:22;;;;;;;0.00;0.00;;;7.20;99.90;;;;;;4927070;29;20670;-68
2022/01/04 03:38:50;;;;;;;0.10;0.10;;;7.20;99.90;;;;;;4928632;29;20651;-68
2022/01/04 03:41:17;;;;;;;0.10;0.10;;;7.20;99.90;;;;;;4927806;29;20669;-68
2022/01/04 03:43:45;;;;;;;0.00;0.00;;;7.20;99.90;;;;;;4948413;28;20635;-68
2022/01/04 03:46:13;;;;;;;0.10;0.10;;;7.20;99.90;;;;;;4929084;29;20631;-68
2022/01/04 03:48:40;;;;;;;0.10;0.10;;;7.20;99.90;;;;;;4928920;29;20975;-67
2022/01/04 03:51:08;;;;;;;0.10;0.10;;;7.20;99.90;;;;;;4927876;29;21226;-68
2022/01/04 03:53:36;;;;;;;0.10;0.10;;;7.20;99.90;;;;;;4927189;29;20634;-67
2022/01/04 03:56:03;;;;;;;0.10;0.10;;;7.20;99.90;;;;;;4928057;29;21222;-68
2022/01/04 03:58:30;;;;;;;0.10;0.10;;;7.20;99.90;;;;;;4933262;28;20690;-68
2022/01/04 04:00:57;;;;;;;0.10;0.10;;;7.20;99.90;;;;;;4929904;29;20751;-68
2022/01/04 04:03:26;;;;;;;0.10;0.10;;;7.20;99.90;;;;;;4924638;29;20745;-68
2022/01/04 04:05:53;;;;;;;0.10;0.10;;;7.20;99.90;;;;;;4930383;29;20615;-68
2022/01/04 04:08:19;;;;;;;0.10;0.10;;;7.20;99.90;;;;;;4929355;29;20999;-68
2022/01/04 04:10:47;;;;;;;0.10;0.10;;;7.20;99.90;;;;;;4926660;29;20670;-68
2022/01/04 04:13:14;;;;;;;0.00;0.00;;;7.20;99.90;;;;;;4930048;29;20630;-69
2022/01/04 04:15:41;;;;;;;0.10;0.10;;;7.20;99.90;;;;;;4931314;29;20615;-69
2022/01/04 04:18:09;;;;;;;0.10;0.10;;;7.20;99.90;;;;;;4926961;29;20678;-69
2022/01/04 04:20:38;;;;;;;0.10;0.10;;;7.20;99.90;;;;;;4928672;29;20623;-68
2022/01/04 04:23:07;;;;;;;0.10;0.10;;;7.20;99.90;;;;;;4928651;29;20623;-69
2022/01/04 04:25:34;;;;;;;0.10;0.10;;;7.20;99.90;;;;;;4928701;29;20622;-69
2022/01/04 04:28:01;;;;;;;0.00;0.00;;;7.20;99.90;;;;;;4942666;28;20627;-69
2022/01/04 04:30:28;;;;;;;0.10;0.10;;;7.20;99.90;;;;;;4923514;29;20627;-68
2022/01/04 04:32:55;;;;;;;0.00;0.00;;;7.20;99.90;;;;;;4927863;29;20871;-69
2022/01/04 04:35:23;;;;;;;0.10;0.10;;;7.20;99.90;;;;;;4929257;29;20620;-68
2022/01/04 04:37:51;;;;;;;0.10;0.10;;;7.20;99.90;;;;;;4928366;28;20661;-68
2022/01/04 04:40:18;;;;;;;0.10;0.10;;;7.20;99.90;;;;;;4929523;29;20615;-69
2022/01/04 04:42:45;;;;;;;0.10;0.10;;;7.20;99.90;;;;;;4928416;29;20665;-69
2022/01/04 04:45:12;;;;;;;0.10;0.10;;;7.20;99.90;;;;;;4925479;29;20649;-69
2022/01/04 04:47:39;;;;;;;0.10;0.10;;;7.20;99.90;;;;;;4927868;29;20747;-68
2022/01/04 04:50:07;;;;;;;0.10;0.10;;;7.20;99.90;;;;;;4929463;29;20637;-69
2022/01/04 04:52:35;;;;;;;0.10;0.10;;;7.20;99.90;;;;;;4931084;28;21255;-68
2022/01/04 04:55:04;;;;;;;0.10;0.10;;;7.20;99.90;;;;;;4925541;29;20663;-68
2022/01/04 04:57:31;;;;;;;0.10;0.10;;;7.20;99.90;;;;;;4930171;29;20634;-69
2022/01/04 04:59:58;;;;;;;0.10;0.10;;;7.20;99.90;;;;;;4927690;29;20629;-69
2022/01/04 05:02:25;;;;;;;0.10;0.10;;;7.20;99.90;;;;;;4928745;29;20702;-69
2022/01/04 05:04:52;;;;;;;0.10;0.10;;;7.20;99.90;;;;;;4928700;29;20682;-69
2022/01/04 05:07:19;;;;;;;0.10;0.10;;;7.20;99.90;;;;;;4923695;29;20630;-69
2022/01/04 05:09:46;;;;;;;0.10;0.10;;;7.20;99.90;;;;;;4927507;29;20679;-69
2022/01/04 05:12:15;;;;;;;0.07;0.07;;;7.20;99.90;;;;;;4927105;29;20741;-69
2022/01/04 05:14:45;;;;;;;0.03;0.03;;;7.20;99.90;;;;;;4928461;29;20631;-69
2022/01/04 05:17:13;;;;;;;0.10;0.10;;;7.30;99.90;;;;;;4928791;29;20619;-69
2022/01/04 05:19:41;;;;;;;0.10;0.10;;;7.30;99.90;;;;;;4923427;29;20661;-69
2022/01/04 05:22:08;;;;;;;0.10;0.10;;;7.30;99.90;;;;;;4926334;29;20741;-69
2022/01/04 05:24:35;;;;;;;0.03;0.03;;;7.30;99.90;;;;;;4928226;29;20687;-69
2022/01/04 05:27:03;;;;;;;0.10;0.10;;;7.30;99.90;;;;;;4918874;29;20630;-69
2022/01/04 05:29:31;;;;;;;0.10;0.10;;;7.30;99.90;;;;;;4924943;29;20634;-69
2022/01/04 05:31:58;;;;;;;0.00;0.00;;;7.30;99.90;;;;;;4928416;29;21224;-69
2022/01/04 05:34:26;;;;;;;0.10;0.10;;;7.30;99.90;;;;;;4927466;29;20694;-70
2022/01/04 05:36:53;;;;;;;0.10;0.10;;;7.30;99.90;;;;;;4927122;29;20627;-70
2022/01/04 05:39:20;;;;;;;0.10;0.10;;;7.30;99.90;;;;;;4925435;29;20690;-69
2022/01/04 05:41:47;;;;;;;0.10;0.10;;;7.30;99.90;;;;;;4927182;29;20662;-69
2022/01/04 05:44:15;;;;;;;0.10;0.10;;;7.30;99.90;;;;;;4926687;29;20679;-69
2022/01/04 05:46:43;;;;;;;0.10;0.10;;;7.30;99.90;;;;;;4927822;29;20669;-69
2022/01/04 05:49:10;;;;;;;0.10;0.10;;;7.30;99.90;;;;;;4924227;29;20626;-69
2022/01/04 05:51:37;;;;;;;0.10;0.10;;;7.30;99.90;;;;;;4926915;29;21080;-68
2022/01/04 05:54:05;;;;;;;0.10;0.10;;;7.40;99.90;;;;;;4925073;29;20620;-69
2022/01/04 05:56:32;;;;;;;0.10;0.10;;;7.30;99.90;;;;;;4927239;29;20713;-69
2022/01/04 05:58:58;;;;;;;0.10;0.10;;;7.30;99.90;;;;;;4928464;28;20659;-69
2022/01/04 06:01:25;;;;;;;0.10;0.10;;;7.30;99.90;;;;;;4927032;29;20705;-70
2022/01/04 06:03:54;;;;;;;0.10;0.10;;;7.30;99.90;;;;;;4928501;29;20619;-69
2022/01/04 06:06:21;;;;;;;0.10;0.10;;;7.30;99.90;;;;;;4916494;29;20731;-68
2022/01/04 06:08:49;;;;;;;0.10;0.10;;;7.30;99.90;;;;;;4925463;29;20625;-68
2022/01/04 06:11:31;;;;;;;0.10;0.10;;;7.30;99.90;;;;;;4926106;29;20754;-69
2022/01/04 06:16:43;;;;;;;0.10;0.10;;;7.30;99.90;;;;;;4928844;29;20634;-69
2022/01/04 06:19:11;;;;;;;0.10;0.10;;;7.30;99.90;;;;;;4930290;29;20651;-69
2022/01/04 06:21:38;;;;;;;0.10;0.10;;;7.30;99.90;;;;;;4930867;29;20658;-69
2022/01/04 06:24:05;;;;;;;0.10;0.10;;;7.30;99.90;;;;;;4933396;29;20622;-69
2022/01/04 06:26:33;;;;;;;0.00;0.00;;;7.30;99.90;;;;;;4929413;29;20734;-68
2022/01/04 06:29:00;;;;;;;0.10;0.10;;;7.30;99.90;;;;;;4933426;29;20627;-68
2022/01/04 06:31:28;;;;;;;0.10;0.10;;;7.30;99.90;;;;;;4933116;29;20659;-69
2022/01/04 06:33:55;;;;;;;0.10;0.10;;;7.30;99.90;;;;;;4927668;29;20697;-69
2022/01/04 06:36:23;;;;;;;0.10;0.10;;;7.30;99.90;;;;;;4933285;29;20721;-69
2022/01/04 06:38:50;;;;;;;0.10;0.10;;;7.30;99.90;;;;;;4931676;29;20655;-69
2022/01/04 06:41:17;;;;;;;0.10;0.10;;;7.30;99.90;;;;;;4930008;29;20702;-68
2022/01/04 06:43:44;;;;;;;0.10;0.10;;;7.30;99.90;;;;;;4930444;29;20667;-68
2022/01/04 06:46:13;;;;;;;0.10;0.10;;;7.20;99.90;;;;;;4929428;29;20615;-69
2022/01/04 06:48:40;;;;;;;0.10;0.10;;;7.20;99.90;;;;;;4930826;29;20617;-69
2022/01/04 06:51:07;;;;;;;0.10;0.10;;;7.20;99.90;;;;;;4928611;29;20662;-69
2022/01/04 06:53:36;;;;;;;0.10;0.10;;;7.30;99.90;;;;;;4931332;29;21215;-69
2022/01/04 06:56:03;;;;;;;0.00;0.00;;;7.20;99.90;;;;;;4925775;29;20651;-69
2022/01/04 06:58:30;;;;;;;0.00;0.00;;;7.30;99.90;;;;;;4937978;28;20690;-68
2022/01/04 07:00:57;;;;;;;0.03;0.03;;;7.30;99.90;;;;;;4930599;29;20669;-69
2022/01/04 07:03:25;;;;;;;0.10;0.10;;;7.20;99.90;;;;;;4929134;29;20713;-68
2022/01/04 07:05:51;;;;;;;0.10;0.10;;;7.20;99.90;;;;;;4928626;29;20658;-69
2022/01/04 07:08:19;;;;;;;0.10;0.10;;;7.20;99.90;;;;;;4929732;29;21264;-69
2022/01/04 07:10:47;;;;;;;0.10;0.10;;;7.20;99.90;;;;;;4930665;29;20615;-68
2022/01/04 07:13:14;;;;;;;0.10;0.10;;;7.20;99.90;;;;;;4931059;29;20623;-69
2022/01/04 07:15:41;;;;;;;0.10;0.10;;;7.20;99.90;;;;;;4930084;29;20623;-69
2022/01/04 07:18:08;;;;;;;0.10;0.10;;;7.20;99.90;;;;;;4930778;29;20633;-69
2022/01/04 07:20:35;;;;;;;0.00;0.00;;;7.20;99.90;;;;;;4928967;29;20666;-69
2022/01/04 07:23:01;;;;;;;0.10;0.10;;;7.20;99.90;;;;;;4931311;29;20615;-69
2022/01/04 07:25:29;;;;;;;0.10;0.10;;;7.10;99.90;;;;;;4926905;29;20627;-69
2022/01/04 07:27:57;;;;;;;0.00;0.00;;;7.10;99.90;;;;;;4944509;28;20634;-69
2022/01/04 07:30:25;;;;;;;0.10;0.10;;;7.10;99.90;;;;;;4928779;29;20631;-69
2022/01/04 07:32:52;;;;;;;0.10;0.10;;;7.10;99.90;;;;;;4932040;29;21039;-69
2022/01/04 07:35:19;;;;;;;0.00;0.00;;;7.00;99.90;;;;;;4926180;29;20674;-69
2022/01/04 07:37:46;;;;;;;0.10;0.10;;;7.00;99.90;;;;;;4929271;29;20726;-69
2022/01/04 07:40:13;;;;;;;0.10;0.10;;;7.00;99.90;;;;;;4928284;29;20766;-69
2022/01/04 07:42:40;;;;;;;0.10;0.10;;;7.00;99.90;;;;;;4928662;29;20662;-69
2022/01/04 07:45:10;;;;;;;0.10;0.10;;;7.00;99.90;;;;;;4930618;29;20682;-69
2022/01/04 07:51:27;;;;;;;0.10;0.10;;;7.00;99.90;;;;;;4864454;29;20667;-68
2022/01/04 08:01:10;;;;;;;0.10;0.10;;;7.00;99.90;;;;;;4916747;29;20781;-68
2022/01/04 08:03:37;;;;;;;0.10;0.10;;;7.00;99.90;;;;;;4930323;29;20682;-69
2022/01/04 08:06:04;;;;;;;0.10;0.10;;;7.00;99.90;;;;;;4925808;29;20619;-68
2022/01/04 08:08:31;;;;;;;0.10;0.10;;;7.00;99.90;;;;;;4928964;29;20627;-68
2022/01/04 08:10:58;;;;;;;0.10;0.10;;;7.00;99.90;;;;;;4932242;29;20650;-68
2022/01/04 08:13:28;;;;;;;0.10;0.10;;;7.00;99.90;;;;;;4933843;29;21266;-68
2022/01/04 08:15:55;;;;;;;0.00;0.00;;;7.00;99.90;;;;;;4929782;29;20615;-69
2022/01/04 08:18:23;;;;;;;0.10;0.10;;;7.10;99.90;;;;;;4927236;29;20634;-69
2022/01/04 08:20:55;;;;;;;0.10;0.10;;;7.00;99.90;;;;;;4929527;29;21323;-68
2022/01/04 08:23:22;;;;;;;0.10;0.10;;;7.10;99.90;;;;;;4928255;29;20624;-69
2022/01/04 08:25:49;;;;;;;0.00;0.00;;;7.10;99.90;;;;;;4929818;29;20683;-69
2022/01/04 08:28:16;;;;;;;0.10;0.10;;;7.10;99.90;;;;;;4928020;29;20666;-69
2022/01/04 08:30:43;;;;;;;0.10;0.10;;;7.10;99.90;;;;;;4929311;29;20635;-69
2022/01/04 08:33:11;;;;;;;0.10;0.10;;;7.10;99.90;;;;;;4927391;29;20634;-70
2022/01/04 08:35:39;;;;;;;0.10;0.10;;;7.10;99.90;;;;;;4930615;28;21185;-69
2022/01/04 08:38:07;;;;;;;0.10;0.10;;;7.10;99.90;;;;;;4922284;29;20642;-69
2022/01/04 08:40:34;;;;;;;0.10;0.10;;;7.20;99.90;;;;;;4928221;29;20665;-69
2022/01/04 08:43:01;;;;;;;0.00;0.00;;;7.10;99.90;;;;;;4931856;28;20708;-69
2022/01/04 08:45:29;;;;;;;0.10;0.10;;;7.20;99.90;;;;;;4928275;29;20638;-68
2022/01/04 08:47:57;;;;;;;0.10;0.10;;;7.20;99.90;;;;;;4929855;29;20615;-69
2022/01/04 08:50:27;;;;;;;0.10;0.10;;;7.20;99.90;;;;;;4925281;29;20706;-68
2022/01/04 08:52:57;;;;;;;0.10;0.10;;;7.20;99.90;;;;;;4928418;29;20769;-69
2022/01/04 08:55:25;;;;;;;0.10;0.10;;;7.20;99.90;;;;;;4929313;29;20651;-69
2022/01/04 08:57:53;;;;;;;0.10;0.10;;;7.30;99.90;;;;;;4928880;29;20961;-69
2022/01/04 09:00:21;;;;;;;0.10;0.10;;;7.30;99.90;;;;;;4929458;29;20659;-69
2022/01/04 09:02:48;;;;;;;0.10;0.10;;;7.30;99.90;;;;;;4928990;29;20721;-69
2022/01/04 09:05:15;;;;;;;0.10;0.10;;;7.30;99.90;;;;;;4928616;29;20649;-69
2022/01/04 09:07:44;;;;;;;0.10;0.10;;;7.30;99.90;;;;;;4927878;29;20639;-69
2022/01/04 09:10:13;;;;;;;0.00;0.00;;;7.30;99.90;;;;;;4928518;29;20635;-69
2022/01/04 09:12:52;;;;;;;0.10;0.10;;;7.30;99.90;;;;;;4927215;29;20812;-69
2022/01/04 09:15:32;;;;;;;0.10;0.10;;;7.30;99.90;;;;;;4924304;29;21255;-69
2022/01/04 09:20:47;;;;;;;0.10;0.10;;;7.30;99.90;;;;;;4927702;29;20698;-69
2022/01/04 09:23:18;;;;;;;0.10;0.10;;;7.30;99.90;;;;;;4925277;29;21186;-69
2022/01/04 09:25:47;;;;;;;0.10;0.10;;;7.30;99.90;;;;;;4938758;28;20655;-69
2022/01/04 09:28:15;;;;;;;0.10;0.10;;;7.30;99.90;;;;;;4942598;28;20635;-69
2022/01/04 09:30:44;;;;;;;0.10;0.10;;;7.30;99.90;;;;;;4941724;28;20638;-70
2022/01/04 09:33:11;;;;;;;0.10;0.10;;;7.30;99.90;;;;;;4943723;28;20627;-69
2022/01/04 09:35:38;;;;;;;0.10;0.10;;;7.30;99.90;;;;;;4927518;28;20630;-69
2022/01/04 09:38:06;;;;;;;0.10;0.10;;;7.30;99.90;;;;;;4928171;29;20686;-69
2022/01/04 09:40:36;;;;;;;0.10;0.10;;;7.30;99.90;;;;;;4926670;29;20702;-70
2022/01/04 09:43:06;;;;;;;0.10;0.10;;;7.30;99.90;;;;;;4943064;28;20642;-69
2022/01/04 09:45:34;;;;;;;0.10;0.10;;;7.30;99.90;;;;;;4923031;29;20710;-69
2022/01/04 09:48:01;;;;;;;0.10;0.10;;;7.30;99.90;;;;;;4922705;29;20642;-69
2022/01/04 09:50:28;;;;;;;0.00;0.00;;;7.30;99.90;;;;;;4930694;29;20631;-69
2022/01/04 09:52:57;;;;;;;0.10;0.10;;;7.30;99.90;;;;;;4930523;29;20655;-69
2022/01/04 09:55:24;;;;;;;0.10;0.10;;;7.30;99.90;;;;;;4929721;29;21230;-69
2022/01/04 09:57:51;;;;;;;0.10;0.10;;;7.40;99.90;;;;;;4931868;29;20730;-69
2022/01/04 10:00:20;;;;;;;0.00;0.00;;;7.30;99.90;;;;;;4928921;29;20659;-69
2022/01/04 10:02:50;;;;;;;0.00;0.00;;;7.30;99.90;;;;;;4937921;28;21065;-69
2022/01/04 10:05:20;;;;;;;0.03;0.03;;;7.30;99.90;;;;;;4946414;28;21207;-69
2022/01/04 10:07:48;;;;;;;0.10;0.10;;;7.30;99.90;;;;;;4930002;29;20650;-68
2022/01/04 10:10:18;;;;;;;0.10;0.10;;;7.30;99.90;;;;;;4938599;28;20631;-69
2022/01/04 10:12:54;;;;;;;0.10;0.10;;;7.30;99.90;;;;;;4938936;28;20674;-68
2022/01/04 10:15:37;;;;;;;0.00;0.00;;;7.30;99.90;;;;;;4931370;29;20618;-69
2022/01/04 10:18:23;;;;;;;0.10;0.10;;;7.30;99.90;;;;;;4928184;29;21296;-68
2022/01/04 10:20:53;;;;;;;0.10;0.10;;;7.30;99.90;;;;;;4943526;28;20689;-69
2022/01/04 10:23:23;;;;;;;0.10;0.10;;;7.30;99.90;;;;;;4928567;29;20666;-69
2022/01/04 10:25:51;;;;;;;0.10;0.10;;;7.30;99.90;;;;;;4946125;28;20622;-70
2022/01/04 10:28:37;;;;;;;0.10;0.10;;;7.30;99.90;;;;;;4931576;29;20666;-70
2022/01/04 10:31:07;;;;;;;0.10;0.10;;;7.30;99.90;;;;;;4923333;29;20693;-70
2022/01/04 10:33:36;;;;;;;0.10;0.10;;;7.30;99.90;;;;;;4937261;28;20694;-69
2022/01/04 10:36:11;;;;;;;0.10;0.10;;;7.30;99.90;;;;;;4922474;29;20619;-70
2022/01/04 10:38:40;;;;;;;0.10;0.10;;;7.30;99.90;;;;;;4930366;29;20630;-71
2022/01/04 10:41:09;;;;;;;0.10;0.10;;;7.30;99.90;;;;;;4923206;29;21087;-71
2022/01/04 10:43:40;;;;;;;0.10;0.10;;;7.30;99.90;;;;;;4931426;29;20634;-71
2022/01/04 10:46:10;;;;;;;0.10;0.10;;;7.30;99.90;;;;;;4927120;29;20608;-71
2022/01/04 10:48:41;;;;;;;0.10;0.10;;;7.40;99.90;;;;;;4931793;29;20639;-70
2022/01/04 10:51:10;;;;;;;0.10;0.10;;;7.30;99.90;;;;;;4930925;29;20749;-69
2022/01/04 10:53:40;;;;;;;0.00;0.00;;;7.40;99.90;;;;;;4927048;28;20635;-69
2022/01/04 10:56:09;;;;;;;0.10;0.10;;;7.40;99.90;;;;;;4921229;29;20713;-69
2022/01/04 10:58:38;;;;;;;0.10;0.10;;;7.40;99.90;;;;;;4927084;29;20627;-69
2022/01/04 11:01:10;;;;;;;0.10;0.10;;;7.50;99.90;;;;;;4926294;29;20689;-69
2022/01/04 11:03:39;;;;;;;0.10;0.10;;;7.50;99.90;;;;;;4928295;29;20626;-69
2022/01/04 11:06:11;;;;;;;0.10;0.10;;;7.50;99.90;;;;;;4928893;29;20607;-70
2022/01/04 11:08:40;;;;;;;0.10;0.10;;;7.50;99.90;;;;;;4942204;28;20719;-71
2022/01/04 11:11:07;;;;;;;0.10;0.10;;;7.50;99.90;;;;;;4929317;29;20655;-71
2022/01/04 11:13:35;;;;;;;0.10;0.10;;;7.60;99.90;;;;;;4940449;28;20749;-71
2022/01/04 11:16:06;;;;;;;0.10;0.10;;;7.60;99.90;;;;;;4928886;29;20638;-70
2022/01/04 11:18:40;;;;;;;0.10;0.10;;;7.60;99.90;;;;;;4934348;29;20659;-70
2022/01/04 11:21:12;;;;;;;0.10;0.10;;;7.70;99.90;;;;;;4937920;28;20675;-70
2022/01/04 11:23:41;;;;;;;0.10;0.10;;;7.70;99.90;;;;;;4923919;29;20671;-70
2022/01/04 11:26:11;;;;;;;0.10;0.10;;;7.80;99.90;;;;;;4928796;29;20651;-69
2022/01/04 11:28:41;;;;;;;0.10;0.10;;;7.80;99.90;;;;;;4923682;29;20635;-70
2022/01/04 11:31:26;;;;;;;0.10;0.10;;;7.70;99.90;;;;;;4926432;29;20648;-69
2022/01/04 11:34:13;;;;;;;0.10;0.10;;;7.80;99.90;;;;;;4923043;29;20623;-70
2022/01/04 11:36:42;;;;;;;0.00;0.00;;;7.70;99.90;;;;;;4928292;29;20622;-69
2022/01/04 11:39:35;;;;;;;0.10;0.10;;;7.80;99.90;;;;;;4924565;29;20710;-69
2022/01/04 11:42:06;;;;;;;0.00;0.00;;;7.80;99.90;;;;;;4928436;29;20676;-69
2022/01/04 11:44:35;;;;;;;0.10;0.10;;;7.80;99.90;;;;;;4934488;29;20649;-69
2022/01/04 11:47:06;;;;;;;0.10;0.10;;;7.80;99.90;;;;;;4930034;29;20638;-70
2022/01/04 11:49:36;;;;;;;0.10;0.10;;;7.90;99.90;;;;;;4927072;29;20764;-69
2022/01/04 11:52:05;;;;;;;0.10;0.10;;;7.90;99.90;;;;;;4925630;29;20695;-69
2022/01/04 11:54:32;;;;;;;0.10;0.10;;;7.80;99.90;;;;;;4924312;29;20640;-69
2022/01/04 11:57:01;;;;;;;0.10;0.10;;;7.90;99.90;;;;;;4931742;28;20640;-69
2022/01/04 11:59:37;;;;;;;0.10;0.10;;;7.90;99.90;;;;;;4926078;29;20646;-69
2022/01/04 12:02:28;;;;;;;0.10;0.10;;;7.80;99.90;;;;;;4933161;29;20882;-69
2022/01/04 12:04:58;;;;;;;0.10;0.10;;;7.90;99.90;;;;;;4920321;29;20639;-70
2022/01/04 12:07:48;;;;;;;0.00;0.00;;;7.90;99.90;;;;;;4942197;28;20631;-69
2022/01/04 12:10:41;;;;;;;0.10;0.10;;;7.90;99.90;;;;;;4943107;28;20631;-70
2022/01/04 12:13:14;;;;;;;0.10;0.10;;;7.80;99.90;;;;;;4924227;29;20651;-69
2022/01/04 12:15:46;;;;;;;0.10;0.10;;;7.90;99.90;;;;;;4930709;28;20631;-70
2022/01/04 12:19:01;;;;;;;0.10;0.10;;;7.80;99.90;;;;;;4929367;29;20635;-70
2022/01/04 12:21:45;;;;;;;0.00;0.00;;;7.90;99.90;;;;;;4923400;29;20679;-69
2022/01/04 12:24:15;;;;;;;0.00;0.00;;;7.90;99.90;;;;;;4939279;28;21010;-69
2022/01/04 12:26:42;;;;;;;0.10;0.10;;;7.80;99.90;;;;;;4924520;29;20643;-69
2022/01/04 12:29:38;;;;;;;0.10;0.10;;;7.90;99.90;;;;;;4924806;29;20634;-69
2022/01/04 12:32:09;;;;;;;0.10;0.10;;;7.90;99.90;;;;;;4915776;29;20745;-69
2022/01/04 12:35:01;;;;;;;0.10;0.10;;;7.90;99.90;;;;;;4945272;28;20622;-69
2022/01/04 12:37:39;;;;;;;0.10;0.10;;;7.90;99.90;;;;;;4924175;29;20657;-68
2022/01/04 12:40:08;;;;;;;0.10;0.10;;;7.90;99.90;;;;;;4930733;29;20615;-68
2022/01/04 12:42:35;;;;;;;0.10;0.10;;;7.90;99.90;;;;;;4927452;29;20745;-70
2022/01/04 12:45:04;;;;;;;0.10;0.10;;;7.90;99.90;;;;;;4924994;29;20639;-69
2022/01/04 12:47:32;;;;;;;0.10;0.10;;;7.90;99.90;;;;;;4930379;29;20634;-69
2022/01/04 12:50:01;;;;;;;0.10;0.10;;;8.00;99.90;;;;;;4923659;29;20631;-69
2022/01/04 12:52:31;;;;;;;0.10;0.10;;;8.00;99.90;;;;;;4931375;28;20655;-69
2022/01/04 12:55:01;;;;;;;0.10;0.10;;;8.00;99.90;;;;;;4926367;29;20623;-69
2022/01/04 12:57:29;;;;;;;0.10;0.10;;;8.00;99.90;;;;;;4930157;29;20714;-69
2022/01/04 12:59:59;;;;;;;0.10;0.10;;;8.00;99.90;;;;;;4925977;29;20639;-69
2022/01/04 13:02:28;;;;;;;0.10;0.10;;;8.00;99.90;;;;;;4925823;29;20681;-69
2022/01/04 13:04:59;;;;;;;0.10;0.10;;;8.10;99.90;;;;;;4932065;29;21118;-69
2022/01/04 13:07:31;;;;;;;0.10;0.10;;;8.10;99.90;;;;;;4922374;29;20666;-70
2022/01/04 13:10:03;;;;;;;0.10;0.10;;;8.10;99.90;;;;;;4932528;28;20623;-71
2022/01/04 13:12:34;;;;;;;0.10;0.10;;;8.10;99.90;;;;;;4926305;29;20675;-69
2022/01/04 13:15:02;;;;;;;0.10;0.10;;;8.10;99.90;;;;;;4928802;29;20627;-70
2022/01/04 13:17:30;;;;;;;0.10;0.10;;;8.10;99.90;;;;;;4929240;29;20653;-70
2022/01/04 13:19:58;;;;;;;0.07;0.07;;;8.00;99.90;;;;;;4921430;29;20611;-69
2022/01/04 13:22:31;;;;;;;0.10;0.10;;;8.00;99.90;;;;;;4929796;29;21240;-69
2022/01/04 13:25:00;;;;;;;0.10;0.10;;;8.00;99.90;;;;;;4927165;29;20630;-70
2022/01/04 13:27:31;;;;;;;0.10;0.10;;;8.00;99.90;;;;;;4908359;29;20622;-70
2022/01/04 13:30:01;;;;;;;0.00;0.00;;;8.00;99.90;;;;;;4927535;29;20641;-70